createdAt,value
2024-03-26T00:09:11.474Z,22.80
2024-03-26T00:19:11.786Z,18.30
2024-03-26T00:29:12.070Z,18.50
2024-03-26T00:49:12.659Z,16.80
2024-03-26T00:59:12.913Z,23.40
2024-03-26T01:09:13.342Z,20.10
2024-03-26T01:19:13.818Z,19.70
2024-03-26T01:29:13.780Z,19.30
2024-03-26T01:39:14.271Z,20.10
2024-03-26T01:49:14.546Z,19.30
2024-03-26T01:59:14.841Z,18.90
2024-03-26T02:09:15.112Z,17.70
2024-03-26T02:19:15.378Z,16.60
2024-03-26T02:29:15.987Z,16.10
2024-03-26T02:39:15.973Z,17.60
2024-03-26T02:49:16.514Z,17.20
2024-03-26T02:59:16.508Z,15.60
2024-03-26T03:09:17.092Z,14.80
2024-03-26T03:49:17.931Z,14.30
2024-03-26T03:59:18.180Z,16.70
2024-03-26T04:09:18.743Z,16.40
2024-03-26T04:19:18.710Z,19.90
2024-03-26T04:29:18.987Z,18.70
2024-03-26T04:39:19.269Z,18.20
2024-03-26T04:49:19.547Z,16.60
2024-03-26T04:59:19.888Z,14.40
2024-03-26T05:09:20.093Z,13.20
2024-03-26T05:19:20.107Z,13.50
2024-03-26T05:29:20.647Z,12.60
2024-03-26T05:39:20.628Z,13.40
2024-03-26T05:49:20.894Z,14.80
2024-03-26T05:59:21.175Z,15.00
2024-03-26T06:09:21.360Z,13.30
2024-03-26T06:19:21.736Z,17.40
2024-03-26T06:29:22.007Z,14.90
2024-03-26T06:39:22.291Z,13.00
2024-03-26T06:49:22.479Z,12.60
2024-03-26T06:59:22.859Z,11.90
2024-03-26T07:09:23.447Z,11.80
2024-03-26T07:19:23.707Z,13.80
2024-03-26T07:29:23.970Z,11.20
2024-03-26T07:39:24.573Z,10.80
2024-03-26T07:49:25.163Z,10.40
2024-03-26T07:59:25.582Z,10.70
2024-03-26T08:09:26.340Z,8.80
2024-03-26T08:19:26.943Z,12.80
2024-03-26T08:29:27.659Z,8.60
2024-03-26T08:39:28.388Z,11.60
2024-03-26T08:49:29.127Z,9.90
2024-03-26T08:59:30.172Z,10.30
2024-03-26T09:09:31.255Z,9.10
2024-03-26T09:19:32.588Z,8.20
2024-03-26T09:29:33.375Z,7.90
2024-03-26T09:39:34.694Z,9.10
2024-03-26T09:49:35.580Z,8.40
2024-03-26T09:59:36.713Z,6.60
2024-03-26T10:09:37.867Z,6.20
2024-03-26T10:19:39.877Z,6.30
2024-03-26T10:29:40.063Z,6.00
2024-03-26T10:49:42.486Z,6.60
2024-03-26T10:59:43.360Z,6.50
2024-03-26T11:09:44.566Z,4.90
2024-03-26T11:19:45.741Z,5.60
2024-03-26T11:39:48.143Z,4.70
2024-03-26T11:49:49.332Z,5.20
2024-03-26T11:59:50.540Z,6.20
2024-03-26T12:09:51.493Z,6.60
2024-03-26T12:19:52.677Z,5.20
2024-03-26T12:29:54.135Z,4.20
2024-03-26T12:39:55.347Z,5.00
2024-03-26T12:49:56.522Z,3.50
2024-03-26T12:59:57.485Z,4.30
2024-03-26T13:09:58.754Z,3.00
2024-03-26T13:20:00.031Z,5.20
2024-03-26T13:30:01.178Z,3.00
2024-03-26T13:40:02.571Z,5.00
2024-03-26T13:50:03.569Z,5.70
2024-03-26T14:00:04.848Z,4.60
2024-03-26T14:10:06.299Z,4.40
2024-03-26T14:20:07.227Z,3.30
2024-03-26T14:30:09.160Z,5.60
2024-03-26T14:40:10.838Z,4.40
2024-03-26T14:50:10.846Z,6.40
2024-03-26T15:00:12.192Z,5.30
2024-03-26T15:10:13.334Z,5.70
2024-03-26T15:20:18.204Z,3.10
2024-03-26T15:30:15.675Z,3.00
2024-03-26T15:40:16.893Z,3.90
2024-03-26T15:50:19.405Z,6.80
2024-03-26T16:00:19.359Z,4.50
2024-03-26T16:10:31.505Z,3.10
2024-03-26T16:20:21.592Z,2.90
2024-03-26T16:30:22.764Z,3.90
2024-03-26T16:40:24.195Z,3.20
2024-03-26T16:50:25.088Z,3.40
2024-03-26T17:00:26.266Z,4.40
2024-03-26T17:10:27.463Z,4.50
2024-03-26T17:20:28.257Z,4.10
2024-03-26T17:40:30.512Z,4.70
2024-03-26T17:50:31.644Z,4.40
2024-03-26T18:00:32.818Z,5.60
2024-03-26T18:10:34.055Z,5.00
2024-03-26T18:20:34.929Z,4.60
2024-03-26T18:30:35.741Z,5.60
2024-03-26T18:40:36.717Z,4.80
2024-03-26T18:50:37.765Z,4.90
2024-03-26T19:00:38.731Z,4.20
2024-03-26T19:10:39.874Z,4.90
2024-03-26T19:20:40.868Z,5.30
2024-03-26T19:30:41.629Z,5.00
2024-03-26T19:40:42.838Z,6.40
2024-03-26T19:50:43.405Z,5.60
2024-03-26T20:00:44.591Z,4.90
2024-03-26T20:10:45.306Z,4.80
2024-03-26T20:20:46.430Z,4.20
2024-03-26T20:30:47.378Z,4.90
2024-03-26T20:40:48.307Z,4.40
2024-03-26T20:50:48.938Z,5.20
2024-03-26T21:00:50.256Z,4.00
2024-03-26T21:10:50.716Z,5.30
2024-03-26T21:20:51.752Z,5.10
2024-03-26T21:30:52.456Z,4.20
2024-03-26T21:40:53.230Z,5.30
2024-03-26T21:50:54.225Z,5.10
2024-03-26T22:00:54.827Z,5.90
2024-03-26T22:10:55.735Z,5.60
2024-03-26T22:20:56.614Z,5.10
2024-03-26T22:30:57.124Z,5.00
2024-03-26T22:40:58.005Z,6.50
2024-03-26T22:50:58.881Z,5.60
2024-03-26T23:00:59.715Z,6.40
2024-03-26T23:11:00.781Z,4.90
2024-03-26T23:21:01.341Z,5.40
2024-03-26T23:31:02.106Z,5.60
2024-03-26T23:41:02.885Z,5.90
2024-03-26T23:51:03.664Z,5.60
